Nortonville, Kansas
Current Conditions -  °F | °C
As of 9:52 PM on Monday 20 Oct 2014 (Local Time) from KLWC Reporting Station
Clear Clear  
Wind Chill:   Ceiling: Unl
Heat Index:   Visibility: 9mi
Dew Point:   Wind: 5mph
Humidity: 89%   Direction: 320°NW
Pressure: 30.07"   Gusts: NA
Location:  39.42°N, 95.33°W
Report Text: KLWC 210252Z AUTO 32004KT 9SM CLR 08/06 A3007 RMK AO2 SLP183 T00780061 53009
Loading
Personal Weather Stations






























Interactive Weather Map
Tropical Storm Tracking
New forecast layout! Learn more

10-Day Weather Forecast

Advertisements
Track Severe Weather on mobile